Stella Ada — 9V9082 — position and weather

sailwx.info

Track history (hours):
 
Tides and Currents Weather Stations Pressure Air Temp Water Temp Dewpoint Dewpoint Depression Visibility Wind Speed Wind Dir Waves Ship Positions

Stella Ada

Last reported at 2017-Mar-18 10:29 UTC. Time now 2017-Mar-25 07:40 UTC.
Position S 32°23' E 152°46'.

Length 296 m; draft 14.9 m.

Type: Cargo ship. MMSI: 566089000.

Date/timePositionNaut miles runAvg speedWind from/ knotsBaromVisibWave heightAir tempDewpointWater temp
2017-Mar-18 10:29S 32°23' E 152°46'8 8.2
2017-Mar-18 09:31S 32°30' E 152°42'8 7.9
2017-Mar-18 08:33S 32°37' E 152°37'9 8.6
2017-Mar-18 07:33S 32°44' E 152°31'10 9.7
2017-Mar-18 06:33S 32°50' E 152°22'10 9.9
2017-Mar-18 05:33S 32°54' E 152°11'10 9.8
2017-Mar-18 04:33S 32°57' E 151°60'8 8.2
2017-Mar-18 03:33S 32°57' E 151°50'5 4.6
2017-Mar-18 02:33S 32°54' E 151°46'1 1.0
2017-Mar-18 01:30S 32°53' E 151°46'0 0.0
2017-Mar-18 00:33S 32°53' E 151°46'0 0.0
2017-Mar-17 23:30S 32°53' E 151°46'0 0.0
2017-Mar-17 22:33S 32°53' E 151°46'0 0.0
2017-Mar-17 21:33S 32°53' E 151°46'0 0.0
2017-Mar-17 20:33S 32°53' E 151°46'0 0.0
2017-Mar-17 19:33S 32°53' E 151°46'0 0.0
2017-Mar-17 18:33S 32°53' E 151°46'0 0.0
2017-Mar-17 17:33S 32°53' E 151°46'0 0.0
2017-Mar-17 16:30S 32°53' E 151°46'0 0.0
2017-Mar-17 15:33S 32°53' E 151°46'0 0.0
2017-Mar-17 14:33S 32°53' E 151°46'0 0.0
2017-Mar-17 13:33S 32°53' E 151°46'0 0.0
2017-Mar-17 12:30S 32°53' E 151°46'0 0.0
2017-Mar-17 11:33S 32°53' E 151°46'0 0.0
2017-Mar-17 10:33S 32°53' E 151°46'0 0.0
2017-Mar-17 09:33S 32°53' E 151°46'0 0.0
2017-Mar-17 08:33S 32°53' E 151°46'0 0.0
2017-Mar-17 07:30S 32°53' E 151°46'0 0.0
2017-Mar-17 06:33S 32°53' E 151°46'0 0.0
2017-Mar-17 05:33S 32°53' E 151°46'0 0.0
2017-Mar-17 04:33S 32°53' E 151°46'0 0.0
2017-Mar-17 03:33S 32°53' E 151°46'0 0.0
2017-Mar-17 02:33S 32°53' E 151°46'0 0.0
2017-Mar-17 01:33S 32°53' E 151°46'0 0.0
2017-Mar-17 00:33S 32°53' E 151°46'0 0.0
2017-Mar-16 23:33S 32°53' E 151°46'0 0.0
2017-Mar-16 22:33S 32°53' E 151°46'0 0.0
2017-Mar-16 21:30S 32°53' E 151°46'0 0.0
2017-Mar-16 20:27S 32°53' E 151°46'0 0.0
2017-Mar-16 19:33S 32°53' E 151°46'0 0.0
2017-Mar-16 18:33S 32°53' E 151°46'0 0.0
2017-Mar-16 17:33S 32°53' E 151°46'0 0.0
2017-Mar-16 16:33S 32°53' E 151°46'0 0.0
2017-Mar-16 15:33S 32°53' E 151°46'0 0.0
2017-Mar-16 14:33S 32°53' E 151°46'0 0.0
2017-Mar-16 13:33S 32°53' E 151°46'0 0.0
2017-Mar-16 12:33S 32°53' E 151°46'0 0.0
2017-Mar-16 11:33S 32°53' E 151°46'0 0.0
2017-Mar-16 10:33S 32°53' E 151°46'0 0.0
2017-Mar-16 09:33S 32°53' E 151°46'0 0.0
2017-Mar-16 08:30S 32°53' E 151°46'0 0.0
2017-Mar-16 07:33S 32°53' E 151°46'0 0.0
2017-Mar-16 06:33S 32°53' E 151°46'0 0.0
2017-Mar-16 05:33S 32°53' E 151°46'0 0.0
2017-Mar-16 04:33S 32°53' E 151°46'0 0.0
2017-Mar-16 03:30S 32°53' E 151°46'0 0.0
2017-Mar-16 02:33S 32°53' E 151°46'0 0.3
2017-Mar-16 01:33S 32°53' E 151°46'3 3.5
2017-Mar-16 00:33S 32°55' E 151°50'8 7.8
2017-Mar-15 23:33S 33°01' E 151°55'1010.1
2017-Mar-15 22:33S 33°04' E 152°06'3 2.6
2017-Mar-15 21:32S 33°05' E 152°09'2 2.4
2017-Mar-15 20:31S 33°07' E 152°12'2 2.3
2017-Mar-15 19:33S 33°08' E 152°14'3 2.6
2017-Mar-15 18:33S 33°09' E 152°17'3 2.6
2017-Mar-15 17:34S 33°09' E 152°20'4 3.5
2017-Mar-15 16:33S 33°08' E 152°23'4 4.4
2017-Mar-15 15:34S 33°06' E 152°28'5 4.8
2017-Mar-15 14:33S 33°03' E 152°33'4 4.4
2017-Mar-15 13:34S 33°01' E 152°37'3 2.9
2017-Mar-15 12:33S 32°60' E 152°41'7 6.7
2017-Mar-15 11:33S 33°04' E 152°34'7 7.2
2017-Mar-15 10:33S 33°10' E 152°29'2 1.6
2017-Mar-15 09:31S 33°09' E 152°27'7 5.2
2017-Mar-15 08:08S 33°03' E 152°32'3 5.5
2017-Mar-15 07:34S 33°00' E 152°34'3 3.0
2017-Mar-15 06:33S 32°58' E 152°32'9 9.3
2017-Mar-15 05:34S 32°56' E 152°21'8 7.8
2017-Mar-15 04:34S 32°57' E 152°12'3 2.5
2017-Mar-15 03:31S 32°58' E 152°14'3 2.6
2017-Mar-15 02:33S 32°60' E 152°17'3 2.7
2017-Mar-15 01:32S 33°02' E 152°19'3 2.6
2017-Mar-15 00:30S 33°03' E 152°22'2 1.7
2017-Mar-14 23:33S 33°03' E 152°24'9 9.0
2017-Mar-14 22:33S 33°10' E 152°18'1010.2
2017-Mar-14 21:33S 33°19' E 152°11'1 0.4
2017-Mar-14 20:20S 33°19' E 152°10'2 2.8
2017-Mar-14 19:32S 33°17' E 152°11'3 2.6
2017-Mar-14 18:32S 33°15' E 152°13'3 2.7
2017-Mar-14 17:31S 33°13' E 152°15'3 2.7
2017-Mar-14 16:33S 33°11' E 152°17'3 2.8
2017-Mar-14 15:33S 33°08' E 152°19'3 2.8
2017-Mar-14 14:32S 33°06' E 152°21'3 2.6
2017-Mar-14 13:33S 33°04' E 152°23'3 2.6
2017-Mar-14 12:33S 33°02' E 152°25'2 2.4
2017-Mar-14 11:33S 33°00' E 152°27'2 2.0
2017-Mar-14 10:33S 32°58' E 152°28'6 5.5
2017-Mar-14 09:33S 33°01' E 152°22'1110.7
2017-Mar-14 08:33S 33°08' E 152°13'1310.5
2017-Mar-14 07:18S 33°19' E 152°05'2 2.3
2017-Mar-14 06:33S 33°18' E 152°05'6 2.0
2017-Mar-14 03:33S 33°13' E 152°10'3 2.6
2017-Mar-14 02:33S 33°11' E 152°12'1 1.1
2017-Mar-14 01:33S 33°11' E 152°11'13 0.8
2017-Mar-13 10:20S 33°22' E 152°19'3 3.5
2017-Mar-13 09:33S 33°20' E 152°20'4 3.6
2017-Mar-13 08:33S 33°16' E 152°21'4 3.6
2017-Mar-13 07:33S 33°13' E 152°21'4 3.7
2017-Mar-13 06:33S 33°09' E 152°23'4 3.7
2017-Mar-13 05:33S 33°05' E 152°24'3 3.2
2017-Mar-13 04:33S 33°02' E 152°25'3 2.8
2017-Mar-13 03:33S 32°60' E 152°27'3 2.7
2017-Mar-13 02:33S 32°57' E 152°28'2 2.5
2017-Mar-13 01:33S 32°55' E 152°29'2 2.3
2017-Mar-13 00:34S 32°53' E 152°30'3 3.5
2017-Mar-12 23:33S 32°50' E 152°29'4 4.4
2017-Mar-12 22:34S 32°45' E 152°29'3 2.9
2017-Mar-12 21:34S 32°45' E 152°33'3 3.2
2017-Mar-12 20:33S 32°44' E 152°36'9 9.1
2017-Mar-12 19:33S 32°36' E 152°41'4414.3
2017-Mar-12 16:30S 31°55' E 153°01'1415.0
2017-Mar-12 15:33S 31°42' E 153°07'1515.1
2017-Mar-12 14:33S 31°28' E 153°14'1514.8
2017-Mar-12 13:33S 31°14' E 153°20'  
Track history (hours):
 
Tides and Currents Weather Stations Pressure Air Temp Water Temp Dewpoint Dewpoint Depression Visibility Wind Speed Wind Dir Waves Ship Positions

Stella Ada

Last reported at 2017-Mar-18 10:29 UTC. Time now 2017-Mar-25 07:40 UTC.
Position S 32°23' E 152°46'.

Length 296 m; draft 14.9 m.

Type: Cargo ship. MMSI: 566089000.

Date/timePositionNaut miles runAvg speedWind from/ knotsBaromVisibWave heightAir tempDewpointWater temp
2017-Mar-18 10:29S 32°23' E 152°46'8 8.2
2017-Mar-18 09:31S 32°30' E 152°42'8 7.9
2017-Mar-18 08:33S 32°37' E 152°37'9 8.6
2017-Mar-18 07:33S 32°44' E 152°31'10 9.7
2017-Mar-18 06:33S 32°50' E 152°22'10 9.9
2017-Mar-18 05:33S 32°54' E 152°11'10 9.8
2017-Mar-18 04:33S 32°57' E 151°60'8 8.2
2017-Mar-18 03:33S 32°57' E 151°50'5 4.6
2017-Mar-18 02:33S 32°54' E 151°46'1 1.0
2017-Mar-18 01:30S 32°53' E 151°46'0 0.0
2017-Mar-18 00:33S 32°53' E 151°46'0 0.0
2017-Mar-17 23:30S 32°53' E 151°46'0 0.0
2017-Mar-17 22:33S 32°53' E 151°46'0 0.0
2017-Mar-17 21:33S 32°53' E 151°46'0 0.0
2017-Mar-17 20:33S 32°53' E 151°46'0 0.0
2017-Mar-17 19:33S 32°53' E 151°46'0 0.0
2017-Mar-17 18:33S 32°53' E 151°46'0 0.0
2017-Mar-17 17:33S 32°53' E 151°46'0 0.0
2017-Mar-17 16:30S 32°53' E 151°46'0 0.0
2017-Mar-17 15:33S 32°53' E 151°46'0 0.0
2017-Mar-17 14:33S 32°53' E 151°46'0 0.0
2017-Mar-17 13:33S 32°53' E 151°46'0 0.0
2017-Mar-17 12:30S 32°53' E 151°46'0 0.0
2017-Mar-17 11:33S 32°53' E 151°46'0 0.0
2017-Mar-17 10:33S 32°53' E 151°46'0 0.0
2017-Mar-17 09:33S 32°53' E 151°46'0 0.0
2017-Mar-17 08:33S 32°53' E 151°46'0 0.0
2017-Mar-17 07:30S 32°53' E 151°46'0 0.0
2017-Mar-17 06:33S 32°53' E 151°46'0 0.0
2017-Mar-17 05:33S 32°53' E 151°46'0 0.0
2017-Mar-17 04:33S 32°53' E 151°46'0 0.0
2017-Mar-17 03:33S 32°53' E 151°46'0 0.0
2017-Mar-17 02:33S 32°53' E 151°46'0 0.0
2017-Mar-17 01:33S 32°53' E 151°46'0 0.0
2017-Mar-17 00:33S 32°53' E 151°46'0 0.0
2017-Mar-16 23:33S 32°53' E 151°46'0 0.0
2017-Mar-16 22:33S 32°53' E 151°46'0 0.0
2017-Mar-16 21:30S 32°53' E 151°46'0 0.0
2017-Mar-16 20:27S 32°53' E 151°46'0 0.0
2017-Mar-16 19:33S 32°53' E 151°46'0 0.0
2017-Mar-16 18:33S 32°53' E 151°46'0 0.0
2017-Mar-16 17:33S 32°53' E 151°46'0 0.0
2017-Mar-16 16:33S 32°53' E 151°46'0 0.0
2017-Mar-16 15:33S 32°53' E 151°46'0 0.0
2017-Mar-16 14:33S 32°53' E 151°46'0 0.0
2017-Mar-16 13:33S 32°53' E 151°46'0 0.0
2017-Mar-16 12:33S 32°53' E 151°46'0 0.0
2017-Mar-16 11:33S 32°53' E 151°46'0 0.0
2017-Mar-16 10:33S 32°53' E 151°46'0 0.0
2017-Mar-16 09:33S 32°53' E 151°46'0 0.0
2017-Mar-16 08:30S 32°53' E 151°46'0 0.0
2017-Mar-16 07:33S 32°53' E 151°46'0 0.0
2017-Mar-16 06:33S 32°53' E 151°46'0 0.0
2017-Mar-16 05:33S 32°53' E 151°46'0 0.0
2017-Mar-16 04:33S 32°53' E 151°46'0 0.0
2017-Mar-16 03:30S 32°53' E 151°46'0 0.0
2017-Mar-16 02:33S 32°53' E 151°46'0 0.3
2017-Mar-16 01:33S 32°53' E 151°46'3 3.5
2017-Mar-16 00:33S 32°55' E 151°50'8 7.8
2017-Mar-15 23:33S 33°01' E 151°55'1010.1
2017-Mar-15 22:33S 33°04' E 152°06'3 2.6
2017-Mar-15 21:32S 33°05' E 152°09'2 2.4
2017-Mar-15 20:31S 33°07' E 152°12'2 2.3
2017-Mar-15 19:33S 33°08' E 152°14'3 2.6
2017-Mar-15 18:33S 33°09' E 152°17'3 2.6
2017-Mar-15 17:34S 33°09' E 152°20'4 3.5
2017-Mar-15 16:33S 33°08' E 152°23'4 4.4
2017-Mar-15 15:34S 33°06' E 152°28'5 4.8
2017-Mar-15 14:33S 33°03' E 152°33'4 4.4
2017-Mar-15 13:34S 33°01' E 152°37'3 2.9
2017-Mar-15 12:33S 32°60' E 152°41'7 6.7
2017-Mar-15 11:33S 33°04' E 152°34'7 7.2
2017-Mar-15 10:33S 33°10' E 152°29'2 1.6
2017-Mar-15 09:31S 33°09' E 152°27'7 5.2
2017-Mar-15 08:08S 33°03' E 152°32'3 5.5
2017-Mar-15 07:34S 33°00' E 152°34'3 3.0
2017-Mar-15 06:33S 32°58' E 152°32'9 9.3
2017-Mar-15 05:34S 32°56' E 152°21'8 7.8
2017-Mar-15 04:34S 32°57' E 152°12'3 2.5
2017-Mar-15 03:31S 32°58' E 152°14'3 2.6
2017-Mar-15 02:33S 32°60' E 152°17'3 2.7
2017-Mar-15 01:32S 33°02' E 152°19'3 2.6
2017-Mar-15 00:30S 33°03' E 152°22'2 1.7
2017-Mar-14 23:33S 33°03' E 152°24'9 9.0
2017-Mar-14 22:33S 33°10' E 152°18'1010.2
2017-Mar-14 21:33S 33°19' E 152°11'1 0.4
2017-Mar-14 20:20S 33°19' E 152°10'2 2.8
2017-Mar-14 19:32S 33°17' E 152°11'3 2.6
2017-Mar-14 18:32S 33°15' E 152°13'3 2.7
2017-Mar-14 17:31S 33°13' E 152°15'3 2.7
2017-Mar-14 16:33S 33°11' E 152°17'3 2.8
2017-Mar-14 15:33S 33°08' E 152°19'3 2.8
2017-Mar-14 14:32S 33°06' E 152°21'3 2.6
2017-Mar-14 13:33S 33°04' E 152°23'3 2.6
2017-Mar-14 12:33S 33°02' E 152°25'2 2.4
2017-Mar-14 11:33S 33°00' E 152°27'2 2.0
2017-Mar-14 10:33S 32°58' E 152°28'6 5.5
2017-Mar-14 09:33S 33°01' E 152°22'1110.7
2017-Mar-14 08:33S 33°08' E 152°13'1310.5
2017-Mar-14 07:18S 33°19' E 152°05'2 2.3
2017-Mar-14 06:33S 33°18' E 152°05'6 2.0
2017-Mar-14 03:33S 33°13' E 152°10'3 2.6
2017-Mar-14 02:33S 33°11' E 152°12'1 1.1
2017-Mar-14 01:33S 33°11' E 152°11'13 0.8
2017-Mar-13 10:20S 33°22' E 152°19'3 3.5
2017-Mar-13 09:33S 33°20' E 152°20'4 3.6
2017-Mar-13 08:33S 33°16' E 152°21'4 3.6
2017-Mar-13 07:33S 33°13' E 152°21'4 3.7
2017-Mar-13 06:33S 33°09' E 152°23'4 3.7
2017-Mar-13 05:33S 33°05' E 152°24'3 3.2
2017-Mar-13 04:33S 33°02' E 152°25'3 2.8
2017-Mar-13 03:33S 32°60' E 152°27'3 2.7
2017-Mar-13 02:33S 32°57' E 152°28'2 2.5
2017-Mar-13 01:33S 32°55' E 152°29'2 2.3
2017-Mar-13 00:34S 32°53' E 152°30'3 3.5
2017-Mar-12 23:33S 32°50' E 152°29'4 4.4
2017-Mar-12 22:34S 32°45' E 152°29'3 2.9
2017-Mar-12 21:34S 32°45' E 152°33'3 3.2
2017-Mar-12 20:33S 32°44' E 152°36'9 9.1
2017-Mar-12 19:33S 32°36' E 152°41'4414.3
2017-Mar-12 16:30S 31°55' E 153°01'1415.0
2017-Mar-12 15:33S 31°42' E 153°07'1515.1
2017-Mar-12 14:33S 31°28' E 153°14'1514.8
2017-Mar-12 13:33S 31°14' E 153°20'  

Dump ship's entire track history